sensor_id;sensor_type;location;lat;lon;timestamp;P1;durP1;ratioP1;P2;durP2;ratioP2
1682;SDS011;13252;53.596;10.060;2022-12-29T00:01:42;4.03;;;3.63;;
1682;SDS011;13252;53.596;10.060;2022-12-29T00:04:13;7.23;;;4.27;;
1682;SDS011;13252;53.596;10.060;2022-12-29T00:06:41;4.40;;;3.90;;
1682;SDS011;13252;53.596;10.060;2022-12-29T00:09:10;5.27;;;4.27;;
1682;SDS011;13252;53.596;10.060;2022-12-29T00:11:38;4.47;;;4.07;;
1682;SDS011;13252;53.596;10.060;2022-12-29T00:14:07;4.90;;;4.07;;
1682;SDS011;13252;53.596;10.060;2022-12-29T00:16:53;5.57;;;3.90;;
1682;SDS011;13252;53.596;10.060;2022-12-29T00:19:22;5.00;;;4.17;;
1682;SDS011;13252;53.596;10.060;2022-12-29T00:22:08;6.27;;;4.20;;
1682;SDS011;13252;53.596;10.060;2022-12-29T00:25:03;5.00;;;3.70;;
1682;SDS011;13252;53.596;10.060;2022-12-29T00:27:49;4.27;;;3.87;;
1682;SDS011;13252;53.596;10.060;2022-12-29T00:30:34;4.47;;;3.30;;
1682;SDS011;13252;53.596;10.060;2022-12-29T00:33:21;5.87;;;4.40;;
1682;SDS011;13252;53.596;10.060;2022-12-29T00:36:09;5.07;;;4.53;;
1682;SDS011;13252;53.596;10.060;2022-12-29T00:38:40;5.90;;;4.50;;
1682;SDS011;13252;53.596;10.060;2022-12-29T00:41:28;8.43;;;4.87;;
1682;SDS011;13252;53.596;10.060;2022-12-29T00:44:14;4.20;;;3.73;;
1682;SDS011;13252;53.596;10.060;2022-12-29T00:46:43;5.47;;;4.40;;
1682;SDS011;13252;53.596;10.060;2022-12-29T00:49:11;3.97;;;3.67;;
1682;SDS011;13252;53.596;10.060;2022-12-29T00:51:59;5.67;;;4.50;;
1682;SDS011;13252;53.596;10.060;2022-12-29T00:54:28;6.80;;;4.50;;
1682;SDS011;13252;53.596;10.060;2022-12-29T00:56:57;6.70;;;4.43;;
1682;SDS011;13252;53.596;10.060;2022-12-29T00:59:24;5.50;;;4.80;;
1682;SDS011;13252;53.596;10.060;2022-12-29T01:01:53;5.20;;;4.33;;
1682;SDS011;13252;53.596;10.060;2022-12-29T01:04:22;4.90;;;4.30;;
1682;SDS011;13252;53.596;10.060;2022-12-29T01:06:51;4.80;;;4.20;;
1682;SDS011;13252;53.596;10.060;2022-12-29T01:09:21;5.50;;;4.20;;
1682;SDS011;13252;53.596;10.060;2022-12-29T01:12:09;4.73;;;4.20;;
1682;SDS011;13252;53.596;10.060;2022-12-29T01:14:37;5.27;;;4.37;;
1682;SDS011;13252;53.596;10.060;2022-12-29T01:17:06;8.13;;;4.77;;
1682;SDS011;13252;53.596;10.060;2022-12-29T01:19:34;5.57;;;4.20;;
1682;SDS011;13252;53.596;10.060;2022-12-29T01:22:02;7.50;;;4.10;;
1682;SDS011;13252;53.596;10.060;2022-12-29T01:24:31;6.03;;;3.63;;
1682;SDS011;13252;53.596;10.060;2022-12-29T01:27:01;6.97;;;4.37;;
1682;SDS011;13252;53.596;10.060;2022-12-29T01:29:28;6.00;;;4.10;;
1682;SDS011;13252;53.596;10.060;2022-12-29T01:31:56;5.90;;;3.90;;
1682;SDS011;13252;53.596;10.060;2022-12-29T01:34:24;5.20;;;4.13;;
1682;SDS011;13252;53.596;10.060;2022-12-29T01:36:52;5.37;;;4.30;;
1682;SDS011;13252;53.596;10.060;2022-12-29T01:39:20;4.47;;;3.97;;
1682;SDS011;13252;53.596;10.060;2022-12-29T01:41:49;7.80;;;4.67;;
1682;SDS011;13252;53.596;10.060;2022-12-29T01:47:19;5.60;;;4.40;;
1682;SDS011;13252;53.596;10.060;2022-12-29T01:49:51;6.17;;;4.40;;
1682;SDS011;13252;53.596;10.060;2022-12-29T01:52:21;5.47;;;4.97;;
1682;SDS011;13252;53.596;10.060;2022-12-29T01:54:50;5.63;;;5.03;;
1682;SDS011;13252;53.596;10.060;2022-12-29T01:57:23;4.83;;;4.33;;
1682;SDS011;13252;53.596;10.060;2022-12-29T01:59:53;5.93;;;4.63;;
1682;SDS011;13252;53.596;10.060;2022-12-29T02:02:23;5.57;;;5.07;;
1682;SDS011;13252;53.596;10.060;2022-12-29T02:04:51;11.83;;;5.37;;
1682;SDS011;13252;53.596;10.060;2022-12-29T02:07:23;5.67;;;5.17;;
1682;SDS011;13252;53.596;10.060;2022-12-29T02:09:52;7.20;;;5.17;;
1682;SDS011;13252;53.596;10.060;2022-12-29T02:12:23;6.30;;;5.80;;
1682;SDS011;13252;53.596;10.060;2022-12-29T02:14:53;7.63;;;4.97;;
1682;SDS011;13252;53.596;10.060;2022-12-29T02:17:25;6.23;;;5.63;;
1682;SDS011;13252;53.596;10.060;2022-12-29T02:20:08;6.23;;;5.63;;
1682;SDS011;13252;53.596;10.060;2022-12-29T02:22:47;8.70;;;5.57;;
1682;SDS011;13252;53.596;10.060;2022-12-29T02:25:30;6.73;;;5.80;;
1682;SDS011;13252;53.596;10.060;2022-12-29T02:28:16;7.60;;;6.10;;
1682;SDS011;13252;53.596;10.060;2022-12-29T02:31:10;6.20;;;5.60;;
1682;SDS011;13252;53.596;10.060;2022-12-29T02:33:44;6.57;;;5.63;;
1682;SDS011;13252;53.596;10.060;2022-12-29T02:36:21;5.87;;;5.00;;
1682;SDS011;13252;53.596;10.060;2022-12-29T02:38:56;5.17;;;4.37;;
1682;SDS011;13252;53.596;10.060;2022-12-29T02:41:30;6.17;;;4.20;;
1682;SDS011;13252;53.596;10.060;2022-12-29T02:44:01;7.47;;;4.97;;
1682;SDS011;13252;53.596;10.060;2022-12-29T02:46:35;6.03;;;5.43;;
1682;SDS011;13252;53.596;10.060;2022-12-29T02:49:06;5.83;;;4.87;;
1682;SDS011;13252;53.596;10.060;2022-12-29T02:51:39;5.70;;;4.60;;
1682;SDS011;13252;53.596;10.060;2022-12-29T02:54:11;4.90;;;4.40;;
1682;SDS011;13252;53.596;10.060;2022-12-29T02:56:56;5.43;;;4.80;;
1682;SDS011;13252;53.596;10.060;2022-12-29T02:59:24;4.97;;;4.43;;
1682;SDS011;13252;53.596;10.060;2022-12-29T03:02:00;7.13;;;4.97;;
1682;SDS011;13252;53.596;10.060;2022-12-29T03:07:45;21.33;;;5.10;;
1682;SDS011;13252;53.596;10.060;2022-12-29T03:10:22;6.27;;;4.27;;
1682;SDS011;13252;53.596;10.060;2022-12-29T03:12:58;6.73;;;4.33;;
1682;SDS011;13252;53.596;10.060;2022-12-29T03:15:50;9.43;;;5.30;;
1682;SDS011;13252;53.596;10.060;2022-12-29T03:18:34;5.53;;;3.83;;
1682;SDS011;13252;53.596;10.060;2022-12-29T03:21:08;5.67;;;4.43;;
1682;SDS011;13252;53.596;10.060;2022-12-29T03:23:41;6.63;;;4.60;;
1682;SDS011;13252;53.596;10.060;2022-12-29T03:26:11;6.43;;;3.93;;
1682;SDS011;13252;53.596;10.060;2022-12-29T03:28:41;5.33;;;4.37;;
1682;SDS011;13252;53.596;10.060;2022-12-29T03:31:15;8.20;;;4.90;;
1682;SDS011;13252;53.596;10.060;2022-12-29T03:33:44;5.93;;;4.00;;
1682;SDS011;13252;53.596;10.060;2022-12-29T03:36:15;6.27;;;4.00;;
1682;SDS011;13252;53.596;10.060;2022-12-29T03:38:46;4.57;;;4.00;;
1682;SDS011;13252;53.596;10.060;2022-12-29T03:41:16;7.83;;;4.07;;
1682;SDS011;13252;53.596;10.060;2022-12-29T03:43:45;4.90;;;4.07;;
1682;SDS011;13252;53.596;10.060;2022-12-29T03:46:13;4.10;;;3.70;;
1682;SDS011;13252;53.596;10.060;2022-12-29T03:48:41;7.20;;;4.30;;
1682;SDS011;13252;53.596;10.060;2022-12-29T03:51:11;7.10;;;4.40;;
1682;SDS011;13252;53.596;10.060;2022-12-29T03:53:40;5.10;;;3.90;;
1682;SDS011;13252;53.596;10.060;2022-12-29T03:56:07;5.50;;;4.23;;
1682;SDS011;13252;53.596;10.060;2022-12-29T03:58:36;5.63;;;3.63;;
1682;SDS011;13252;53.596;10.060;2022-12-29T04:01:10;6.30;;;3.70;;
1682;SDS011;13252;53.596;10.060;2022-12-29T04:03:39;5.90;;;3.53;;
1682;SDS011;13252;53.596;10.060;2022-12-29T04:06:08;4.10;;;3.70;;
1682;SDS011;13252;53.596;10.060;2022-12-29T04:08:47;3.80;;;3.10;;
1682;SDS011;13252;53.596;10.060;2022-12-29T04:11:15;5.30;;;3.10;;
1682;SDS011;13252;53.596;10.060;2022-12-29T04:13:44;4.27;;;2.87;;
1682;SDS011;13252;53.596;10.060;2022-12-29T04:16:16;4.40;;;3.77;;
1682;SDS011;13252;53.596;10.060;2022-12-29T04:18:44;4.13;;;3.73;;
1682;SDS011;13252;53.596;10.060;2022-12-29T04:21:12;4.83;;;2.67;;
1682;SDS011;13252;53.596;10.060;2022-12-29T04:23:41;3.13;;;2.70;;
1682;SDS011;13252;53.596;10.060;2022-12-29T04:26:14;4.63;;;2.87;;
1682;SDS011;13252;53.596;10.060;2022-12-29T04:28:53;4.93;;;2.43;;
1682;SDS011;13252;53.596;10.060;2022-12-29T04:31:30;3.90;;;2.43;;
1682;SDS011;13252;53.596;10.060;2022-12-29T04:33:58;3.13;;;2.37;;
1682;SDS011;13252;53.596;10.060;2022-12-29T04:36:27;4.87;;;3.00;;
1682;SDS011;13252;53.596;10.060;2022-12-29T04:38:55;4.60;;;2.67;;
1682;SDS011;13252;53.596;10.060;2022-12-29T04:41:25;3.97;;;2.60;;
1682;SDS011;13252;53.596;10.060;2022-12-29T04:43:53;3.93;;;2.17;;
1682;SDS011;13252;53.596;10.060;2022-12-29T04:46:33;8.20;;;2.40;;
1682;SDS011;13252;53.596;10.060;2022-12-29T04:49:06;2.90;;;2.10;;
1682;SDS011;13252;53.596;10.060;2022-12-29T04:51:47;2.50;;;1.90;;
1682;SDS011;13252;53.596;10.060;2022-12-29T04:54:19;6.33;;;2.27;;
1682;SDS011;13252;53.596;10.060;2022-12-29T04:57:01;3.77;;;2.03;;
1682;SDS011;13252;53.596;10.060;2022-12-29T04:59:29;2.90;;;2.30;;
1682;SDS011;13252;53.596;10.060;2022-12-29T05:01:58;3.90;;;2.70;;
1682;SDS011;13252;53.596;10.060;2022-12-29T05:04:26;7.30;;;3.00;;
1682;SDS011;13252;53.596;10.060;2022-12-29T05:06:54;3.80;;;2.63;;
1682;SDS011;13252;53.596;10.060;2022-12-29T05:09:22;3.87;;;2.30;;
1682;SDS011;13252;53.596;10.060;2022-12-29T05:11:50;3.00;;;2.23;;
1682;SDS011;13252;53.596;10.060;2022-12-29T05:14:20;4.17;;;2.37;;
1682;SDS011;13252;53.596;10.060;2022-12-29T05:16:48;2.60;;;2.00;;
1682;SDS011;13252;53.596;10.060;2022-12-29T05:19:16;3.10;;;1.90;;
1682;SDS011;13252;53.596;10.060;2022-12-29T05:21:44;2.50;;;2.00;;
1682;SDS011;13252;53.596;10.060;2022-12-29T05:24:12;4.40;;;2.90;;
1682;SDS011;13252;53.596;10.060;2022-12-29T05:26:40;4.03;;;2.50;;
1682;SDS011;13252;53.596;10.060;2022-12-29T05:29:33;4.43;;;3.33;;
1682;SDS011;13252;53.596;10.060;2022-12-29T05:32:01;3.27;;;1.97;;
1682;SDS011;13252;53.596;10.060;2022-12-29T05:34:30;4.70;;;2.70;;
1682;SDS011;13252;53.596;10.060;2022-12-29T05:36:58;2.90;;;2.53;;
1682;SDS011;13252;53.596;10.060;2022-12-29T05:39:27;4.37;;;2.60;;
1682;SDS011;13252;53.596;10.060;2022-12-29T05:41:58;4.90;;;2.67;;
1682;SDS011;13252;53.596;10.060;2022-12-29T05:44:46;2.77;;;2.30;;
1682;SDS011;13252;53.596;10.060;2022-12-29T05:47:30;2.77;;;2.23;;
1682;SDS011;13252;53.596;10.060;2022-12-29T05:50:11;2.43;;;2.07;;
1682;SDS011;13252;53.596;10.060;2022-12-29T05:52:57;3.27;;;2.63;;
1682;SDS011;13252;53.596;10.060;2022-12-29T05:55:25;3.20;;;2.40;;
1682;SDS011;13252;53.596;10.060;2022-12-29T05:57:53;4.07;;;2.40;;
1682;SDS011;13252;53.596;10.060;2022-12-29T06:00:23;2.60;;;2.00;;
1682;SDS011;13252;53.596;10.060;2022-12-29T06:02:51;3.87;;;2.20;;
1682;SDS011;13252;53.596;10.060;2022-12-29T06:05:19;2.60;;;1.67;;
1682;SDS011;13252;53.596;10.060;2022-12-29T06:07:47;4.67;;;1.80;;
1682;SDS011;13252;53.596;10.060;2022-12-29T06:10:16;4.50;;;2.00;;
1682;SDS011;13252;53.596;10.060;2022-12-29T06:12:49;1.93;;;1.40;;
1682;SDS011;13252;53.596;10.060;2022-12-29T06:15:18;4.00;;;1.70;;
1682;SDS011;13252;53.596;10.060;2022-12-29T06:17:50;3.10;;;1.50;;
1682;SDS011;13252;53.596;10.060;2022-12-29T06:20:18;3.57;;;2.00;;
1682;SDS011;13252;53.596;10.060;2022-12-29T06:22:46;2.70;;;1.60;;
1682;SDS011;13252;53.596;10.060;2022-12-29T06:25:14;3.23;;;1.50;;
1682;SDS011;13252;53.596;10.060;2022-12-29T06:27:43;2.37;;;1.53;;
1682;SDS011;13252;53.596;10.060;2022-12-29T06:30:12;2.87;;;1.90;;
1682;SDS011;13252;53.596;10.060;2022-12-29T06:32:42;3.40;;;1.60;;
1682;SDS011;13252;53.596;10.060;2022-12-29T06:35:12;3.33;;;1.73;;
1682;SDS011;13252;53.596;10.060;2022-12-29T06:37:44;2.87;;;1.10;;
1682;SDS011;13252;53.596;10.060;2022-12-29T06:40:12;2.87;;;1.70;;
1682;SDS011;13252;53.596;10.060;2022-12-29T06:43:14;2.20;;;1.33;;
1682;SDS011;13252;53.596;10.060;2022-12-29T06:46:02;1.63;;;1.17;;
1682;SDS011;13252;53.596;10.060;2022-12-29T06:48:31;2.80;;;1.50;;
1682;SDS011;13252;53.596;10.060;2022-12-29T06:51:01;2.40;;;1.70;;
1682;SDS011;13252;53.596;10.060;2022-12-29T06:53:29;4.57;;;1.50;;
1682;SDS011;13252;53.596;10.060;2022-12-29T06:55:57;4.53;;;1.63;;
1682;SDS011;13252;53.596;10.060;2022-12-29T06:58:24;3.10;;;1.50;;
1682;SDS011;13252;53.596;10.060;2022-12-29T07:00:52;2.33;;;1.13;;
1682;SDS011;13252;53.596;10.060;2022-12-29T07:03:22;2.13;;;1.33;;
1682;SDS011;13252;53.596;10.060;2022-12-29T07:05:50;6.87;;;1.80;;
1682;SDS011;13252;53.596;10.060;2022-12-29T07:08:20;4.80;;;1.70;;
1682;SDS011;13252;53.596;10.060;2022-12-29T07:10:49;2.23;;;1.70;;
1682;SDS011;13252;53.596;10.060;2022-12-29T07:13:17;2.80;;;1.70;;
1682;SDS011;13252;53.596;10.060;2022-12-29T07:15:44;1.73;;;1.20;;
1682;SDS011;13252;53.596;10.060;2022-12-29T07:18:12;2.87;;;1.40;;
1682;SDS011;13252;53.596;10.060;2022-12-29T07:20:40;3.17;;;1.50;;
1682;SDS011;13252;53.596;10.060;2022-12-29T07:23:08;7.20;;;1.53;;
1682;SDS011;13252;53.596;10.060;2022-12-29T07:25:38;2.00;;;1.30;;
1682;SDS011;13252;53.596;10.060;2022-12-29T07:28:07;3.47;;;1.70;;
1682;SDS011;13252;53.596;10.060;2022-12-29T07:30:36;4.87;;;1.63;;
1682;SDS011;13252;53.596;10.060;2022-12-29T07:33:05;4.30;;;2.03;;
1682;SDS011;13252;53.596;10.060;2022-12-29T07:35:33;3.57;;;1.93;;
1682;SDS011;13252;53.596;10.060;2022-12-29T07:38:01;3.43;;;2.00;;
1682;SDS011;13252;53.596;10.060;2022-12-29T07:40:29;2.30;;;1.80;;
1682;SDS011;13252;53.596;10.060;2022-12-29T07:42:58;3.20;;;2.00;;
1682;SDS011;13252;53.596;10.060;2022-12-29T07:45:33;11.53;;;3.10;;
1682;SDS011;13252;53.596;10.060;2022-12-29T07:48:10;7.37;;;2.20;;
1682;SDS011;13252;53.596;10.060;2022-12-29T07:50:38;2.53;;;1.70;;
1682;SDS011;13252;53.596;10.060;2022-12-29T07:53:07;4.97;;;2.30;;
1682;SDS011;13252;53.596;10.060;2022-12-29T07:55:36;4.60;;;1.97;;
1682;SDS011;13252;53.596;10.060;2022-12-29T07:58:06;5.13;;;1.97;;
1682;SDS011;13252;53.596;10.060;2022-12-29T08:00:33;2.73;;;1.83;;
1682;SDS011;13252;53.596;10.060;2022-12-29T08:03:02;4.70;;;1.67;;
1682;SDS011;13252;53.596;10.060;2022-12-29T08:05:30;4.97;;;1.97;;
1682;SDS011;13252;53.596;10.060;2022-12-29T08:07:59;2.43;;;1.63;;
1682;SDS011;13252;53.596;10.060;2022-12-29T08:10:27;3.47;;;1.33;;
1682;SDS011;13252;53.596;10.060;2022-12-29T08:12:55;3.67;;;2.00;;
1682;SDS011;13252;53.596;10.060;2022-12-29T08:15:24;3.50;;;1.57;;
1682;SDS011;13252;53.596;10.060;2022-12-29T08:17:57;2.83;;;1.60;;
1682;SDS011;13252;53.596;10.060;2022-12-29T08:20:25;2.20;;;1.30;;
1682;SDS011;13252;53.596;10.060;2022-12-29T08:22:53;2.00;;;1.13;;
1682;SDS011;13252;53.596;10.060;2022-12-29T08:25:21;3.30;;;1.10;;
1682;SDS011;13252;53.596;10.060;2022-12-29T08:27:49;6.10;;;1.77;;
1682;SDS011;13252;53.596;10.060;2022-12-29T08:30:18;2.13;;;1.30;;
1682;SDS011;13252;53.596;10.060;2022-12-29T08:32:48;2.80;;;1.57;;
1682;SDS011;13252;53.596;10.060;2022-12-29T08:35:16;3.03;;;1.50;;
1682;SDS011;13252;53.596;10.060;2022-12-29T08:37:44;3.40;;;1.57;;
1682;SDS011;13252;53.596;10.060;2022-12-29T08:40:12;2.40;;;1.60;;
1682;SDS011;13252;53.596;10.060;2022-12-29T08:42:41;3.23;;;1.70;;
1682;SDS011;13252;53.596;10.060;2022-12-29T08:45:09;5.87;;;2.00;;
1682;SDS011;13252;53.596;10.060;2022-12-29T08:47:38;7.97;;;1.73;;
1682;SDS011;13252;53.596;10.060;2022-12-29T08:50:09;3.10;;;1.57;;
1682;SDS011;13252;53.596;10.060;2022-12-29T08:52:37;2.70;;;1.30;;
1682;SDS011;13252;53.596;10.060;2022-12-29T08:55:05;2.80;;;1.20;;
1682;SDS011;13252;53.596;10.060;2022-12-29T08:57:33;4.03;;;1.40;;
1682;SDS011;13252;53.596;10.060;2022-12-29T09:00:14;6.33;;;1.90;;
1682;SDS011;13252;53.596;10.060;2022-12-29T09:02:42;2.77;;;1.23;;
1682;SDS011;13252;53.596;10.060;2022-12-29T09:05:12;3.50;;;1.20;;
1682;SDS011;13252;53.596;10.060;2022-12-29T09:07:40;4.43;;;1.63;;
1682;SDS011;13252;53.596;10.060;2022-12-29T09:10:08;3.80;;;1.43;;
1682;SDS011;13252;53.596;10.060;2022-12-29T09:12:36;3.90;;;1.30;;
1682;SDS011;13252;53.596;10.060;2022-12-29T09:15:04;2.43;;;1.10;;
1682;SDS011;13252;53.596;10.060;2022-12-29T09:17:33;1.73;;;0.90;;
1682;SDS011;13252;53.596;10.060;2022-12-29T09:20:14;3.23;;;1.20;;
1682;SDS011;13252;53.596;10.060;2022-12-29T09:22:43;5.27;;;1.13;;
1682;SDS011;13252;53.596;10.060;2022-12-29T09:25:12;2.90;;;1.07;;
1682;SDS011;13252;53.596;10.060;2022-12-29T09:27:40;5.90;;;0.97;;
1682;SDS011;13252;53.596;10.060;2022-12-29T09:30:08;3.97;;;1.03;;
1682;SDS011;13252;53.596;10.060;2022-12-29T09:32:38;4.10;;;1.23;;
1682;SDS011;13252;53.596;10.060;2022-12-29T09:35:10;5.63;;;0.90;;
1682;SDS011;13252;53.596;10.060;2022-12-29T09:37:39;4.97;;;1.60;;
1682;SDS011;13252;53.596;10.060;2022-12-29T09:40:09;3.80;;;1.00;;
1682;SDS011;13252;53.596;10.060;2022-12-29T09:42:52;7.43;;;1.30;;
1682;SDS011;13252;53.596;10.060;2022-12-29T09:45:28;4.50;;;1.43;;
1682;SDS011;13252;53.596;10.060;2022-12-29T09:48:00;6.23;;;1.63;;
1682;SDS011;13252;53.596;10.060;2022-12-29T09:50:35;6.33;;;1.63;;
1682;SDS011;13252;53.596;10.060;2022-12-29T09:53:09;7.23;;;1.70;;
1682;SDS011;13252;53.596;10.060;2022-12-29T09:55:42;7.83;;;1.37;;
1682;SDS011;13252;53.596;10.060;2022-12-29T09:58:13;3.67;;;1.40;;
1682;SDS011;13252;53.596;10.060;2022-12-29T10:00:47;6.40;;;1.27;;
1682;SDS011;13252;53.596;10.060;2022-12-29T10:03:21;5.10;;;1.27;;
1682;SDS011;13252;53.596;10.060;2022-12-29T10:05:52;5.77;;;1.50;;
1682;SDS011;13252;53.596;10.060;2022-12-29T10:08:28;5.27;;;1.23;;
1682;SDS011;13252;53.596;10.060;2022-12-29T10:11:03;5.40;;;1.30;;
1682;SDS011;13252;53.596;10.060;2022-12-29T10:13:38;9.63;;;2.73;;
1682;SDS011;13252;53.596;10.060;2022-12-29T10:16:11;5.40;;;1.20;;
1682;SDS011;13252;53.596;10.060;2022-12-29T10:18:56;4.07;;;1.30;;
1682;SDS011;13252;53.596;10.060;2022-12-29T10:21:35;5.53;;;1.47;;
1682;SDS011;13252;53.596;10.060;2022-12-29T10:24:11;4.47;;;1.10;;
1682;SDS011;13252;53.596;10.060;2022-12-29T10:26:40;5.07;;;1.23;;
1682;SDS011;13252;53.596;10.060;2022-12-29T10:29:12;4.90;;;1.17;;
1682;SDS011;13252;53.596;10.060;2022-12-29T10:31:43;10.20;;;1.70;;
1682;SDS011;13252;53.596;10.060;2022-12-29T10:34:14;4.33;;;1.43;;
1682;SDS011;13252;53.596;10.060;2022-12-29T10:36:46;8.87;;;1.50;;
1682;SDS011;13252;53.596;10.060;2022-12-29T10:39:19;6.97;;;2.47;;
1682;SDS011;13252;53.596;10.060;2022-12-29T10:41:51;6.40;;;1.60;;
1682;SDS011;13252;53.596;10.060;2022-12-29T10:44:22;8.80;;;2.00;;
1682;SDS011;13252;53.596;10.060;2022-12-29T10:46:53;8.80;;;1.70;;
1682;SDS011;13252;53.596;10.060;2022-12-29T10:49:22;5.17;;;1.33;;
1682;SDS011;13252;53.596;10.060;2022-12-29T10:51:52;6.27;;;1.80;;
1682;SDS011;13252;53.596;10.060;2022-12-29T10:54:25;3.50;;;1.10;;
1682;SDS011;13252;53.596;10.060;2022-12-29T10:56:56;7.60;;;2.30;;
1682;SDS011;13252;53.596;10.060;2022-12-29T10:59:28;5.30;;;1.63;;
1682;SDS011;13252;53.596;10.060;2022-12-29T11:01:58;6.60;;;2.53;;
1682;SDS011;13252;53.596;10.060;2022-12-29T11:04:33;8.37;;;1.70;;
1682;SDS011;13252;53.596;10.060;2022-12-29T11:07:09;4.77;;;1.23;;
1682;SDS011;13252;53.596;10.060;2022-12-29T11:09:43;8.10;;;1.67;;
1682;SDS011;13252;53.596;10.060;2022-12-29T11:12:18;9.60;;;1.70;;
1682;SDS011;13252;53.596;10.060;2022-12-29T11:14:54;8.47;;;2.27;;
1682;SDS011;13252;53.596;10.060;2022-12-29T11:17:29;8.30;;;1.67;;
1682;SDS011;13252;53.596;10.060;2022-12-29T11:19:56;10.80;;;2.20;;
1682;SDS011;13252;53.596;10.060;2022-12-29T11:22:25;8.10;;;1.40;;
1682;SDS011;13252;53.596;10.060;2022-12-29T11:25:04;9.50;;;1.90;;
1682;SDS011;13252;53.596;10.060;2022-12-29T11:27:34;4.80;;;1.50;;
1682;SDS011;13252;53.596;10.060;2022-12-29T11:30:02;6.37;;;1.90;;
1682;SDS011;13252;53.596;10.060;2022-12-29T11:32:37;5.07;;;1.03;;
1682;SDS011;13252;53.596;10.060;2022-12-29T11:35:29;9.70;;;1.67;;
1682;SDS011;13252;53.596;10.060;2022-12-29T11:37:57;7.00;;;1.70;;
1682;SDS011;13252;53.596;10.060;2022-12-29T11:40:27;8.00;;;3.70;;
1682;SDS011;13252;53.596;10.060;2022-12-29T11:42:56;7.30;;;1.70;;
1682;SDS011;13252;53.596;10.060;2022-12-29T11:45:25;4.17;;;1.17;;
1682;SDS011;13252;53.596;10.060;2022-12-29T11:47:54;5.67;;;1.30;;
1682;SDS011;13252;53.596;10.060;2022-12-29T11:50:25;4.70;;;1.40;;
1682;SDS011;13252;53.596;10.060;2022-12-29T11:52:57;5.00;;;1.40;;
1682;SDS011;13252;53.596;10.060;2022-12-29T11:55:27;4.13;;;0.83;;
1682;SDS011;13252;53.596;10.060;2022-12-29T11:57:56;3.90;;;1.00;;
1682;SDS011;13252;53.596;10.060;2022-12-29T12:00:27;7.70;;;1.40;;
1682;SDS011;13252;53.596;10.060;2022-12-29T12:02:56;6.57;;;1.07;;
1682;SDS011;13252;53.596;10.060;2022-12-29T12:05:31;5.37;;;1.60;;
1682;SDS011;13252;53.596;10.060;2022-12-29T12:08:06;5.80;;;1.30;;
1682;SDS011;13252;53.596;10.060;2022-12-29T12:10:48;4.70;;;0.93;;
1682;SDS011;13252;53.596;10.060;2022-12-29T12:13:20;3.63;;;0.97;;
1682;SDS011;13252;53.596;10.060;2022-12-29T12:15:52;6.13;;;1.30;;
1682;SDS011;13252;53.596;10.060;2022-12-29T12:18:30;5.77;;;1.10;;
1682;SDS011;13252;53.596;10.060;2022-12-29T12:21:04;8.03;;;2.27;;
1682;SDS011;13252;53.596;10.060;2022-12-29T12:23:37;5.17;;;1.27;;
1682;SDS011;13252;53.596;10.060;2022-12-29T12:26:12;8.67;;;2.03;;
1682;SDS011;13252;53.596;10.060;2022-12-29T12:28:45;7.23;;;1.50;;
1682;SDS011;13252;53.596;10.060;2022-12-29T12:31:19;3.87;;;1.70;;
1682;SDS011;13252;53.596;10.060;2022-12-29T12:33:53;8.10;;;1.80;;
1682;SDS011;13252;53.596;10.060;2022-12-29T12:36:33;8.67;;;1.50;;
1682;SDS011;13252;53.596;10.060;2022-12-29T12:39:11;4.33;;;1.43;;
1682;SDS011;13252;53.596;10.060;2022-12-29T12:41:44;5.57;;;1.30;;
1682;SDS011;13252;53.596;10.060;2022-12-29T12:44:18;8.43;;;1.20;;
1682;SDS011;13252;53.596;10.060;2022-12-29T12:46:57;5.33;;;1.37;;
1682;SDS011;13252;53.596;10.060;2022-12-29T12:50:08;7.97;;;1.47;;
1682;SDS011;13252;53.596;10.060;2022-12-29T12:52:49;4.47;;;1.37;;
1682;SDS011;13252;53.596;10.060;2022-12-29T12:55:40;4.03;;;1.77;;
1682;SDS011;13252;53.596;10.060;2022-12-29T12:58:19;8.33;;;1.80;;
1682;SDS011;13252;53.596;10.060;2022-12-29T13:00:54;6.40;;;2.20;;
1682;SDS011;13252;53.596;10.060;2022-12-29T13:03:32;8.20;;;1.87;;
1682;SDS011;13252;53.596;10.060;2022-12-29T13:06:11;8.27;;;1.70;;
1682;SDS011;13252;53.596;10.060;2022-12-29T13:08:55;9.07;;;1.90;;
1682;SDS011;13252;53.596;10.060;2022-12-29T13:11:29;5.10;;;1.47;;
1682;SDS011;13252;53.596;10.060;2022-12-29T13:14:10;13.30;;;1.77;;
1682;SDS011;13252;53.596;10.060;2022-12-29T13:16:46;6.77;;;1.60;;
1682;SDS011;13252;53.596;10.060;2022-12-29T13:19:18;6.87;;;2.00;;
1682;SDS011;13252;53.596;10.060;2022-12-29T13:21:54;9.63;;;1.90;;
1682;SDS011;13252;53.596;10.060;2022-12-29T13:24:34;7.70;;;2.60;;
1682;SDS011;13252;53.596;10.060;2022-12-29T13:27:10;8.27;;;1.93;;
1682;SDS011;13252;53.596;10.060;2022-12-29T13:29:45;8.87;;;2.13;;
1682;SDS011;13252;53.596;10.060;2022-12-29T13:32:19;8.70;;;1.93;;
1682;SDS011;13252;53.596;10.060;2022-12-29T13:34:53;5.30;;;1.40;;
1682;SDS011;13252;53.596;10.060;2022-12-29T13:37:27;7.27;;;1.63;;
1682;SDS011;13252;53.596;10.060;2022-12-29T13:39:57;9.40;;;1.80;;
1682;SDS011;13252;53.596;10.060;2022-12-29T13:42:28;6.63;;;2.03;;
1682;SDS011;13252;53.596;10.060;2022-12-29T13:44:59;7.17;;;1.37;;
1682;SDS011;13252;53.596;10.060;2022-12-29T13:47:30;6.10;;;1.57;;
1682;SDS011;13252;53.596;10.060;2022-12-29T13:50:01;9.93;;;1.70;;
1682;SDS011;13252;53.596;10.060;2022-12-29T13:52:32;6.33;;;1.90;;
1682;SDS011;13252;53.596;10.060;2022-12-29T13:55:07;7.67;;;1.80;;
1682;SDS011;13252;53.596;10.060;2022-12-29T13:57:48;6.47;;;1.60;;
1682;SDS011;13252;53.596;10.060;2022-12-29T14:00:20;8.90;;;1.90;;
1682;SDS011;13252;53.596;10.060;2022-12-29T14:05:42;4.90;;;1.37;;
1682;SDS011;13252;53.596;10.060;2022-12-29T14:08:14;9.00;;;1.67;;
1682;SDS011;13252;53.596;10.060;2022-12-29T14:10:45;7.43;;;2.03;;
1682;SDS011;13252;53.596;10.060;2022-12-29T14:13:15;7.70;;;1.43;;
1682;SDS011;13252;53.596;10.060;2022-12-29T14:15:45;11.07;;;2.00;;
1682;SDS011;13252;53.596;10.060;2022-12-29T14:18:18;9.10;;;2.03;;
1682;SDS011;13252;53.596;10.060;2022-12-29T14:20:54;4.10;;;0.63;;
1682;SDS011;13252;53.596;10.060;2022-12-29T14:23:35;9.50;;;1.70;;
1682;SDS011;13252;53.596;10.060;2022-12-29T14:26:11;5.30;;;1.10;;
1682;SDS011;13252;53.596;10.060;2022-12-29T14:28:41;4.73;;;1.07;;
1682;SDS011;13252;53.596;10.060;2022-12-29T14:34:25;3.70;;;1.00;;
1682;SDS011;13252;53.596;10.060;2022-12-29T14:36:55;7.63;;;1.50;;
1682;SDS011;13252;53.596;10.060;2022-12-29T14:39:28;6.57;;;1.30;;
1682;SDS011;13252;53.596;10.060;2022-12-29T14:41:59;7.60;;;1.40;;
1682;SDS011;13252;53.596;10.060;2022-12-29T14:44:28;5.13;;;1.40;;
1682;SDS011;13252;53.596;10.060;2022-12-29T14:46:57;6.40;;;1.80;;
1682;SDS011;13252;53.596;10.060;2022-12-29T14:49:27;5.90;;;1.47;;
1682;SDS011;13252;53.596;10.060;2022-12-29T14:52:04;7.13;;;1.80;;
1682;SDS011;13252;53.596;10.060;2022-12-29T14:54:44;6.90;;;2.23;;
1682;SDS011;13252;53.596;10.060;2022-12-29T14:57:19;8.43;;;2.63;;
1682;SDS011;13252;53.596;10.060;2022-12-29T14:59:52;8.83;;;2.00;;
1682;SDS011;13252;53.596;10.060;2022-12-29T15:02:24;5.87;;;1.23;;
1682;SDS011;13252;53.596;10.060;2022-12-29T15:04:53;5.37;;;1.60;;
1682;SDS011;13252;53.596;10.060;2022-12-29T15:07:26;4.00;;;1.30;;
1682;SDS011;13252;53.596;10.060;2022-12-29T15:09:54;7.20;;;1.60;;
1682;SDS011;13252;53.596;10.060;2022-12-29T15:12:28;11.17;;;1.73;;
1682;SDS011;13252;53.596;10.060;2022-12-29T15:15:00;6.97;;;2.23;;
1682;SDS011;13252;53.596;10.060;2022-12-29T15:17:30;10.43;;;1.80;;
1682;SDS011;13252;53.596;10.060;2022-12-29T15:19:59;8.50;;;2.10;;
1682;SDS011;13252;53.596;10.060;2022-12-29T15:22:28;11.53;;;1.80;;
1682;SDS011;13252;53.596;10.060;2022-12-29T15:24:58;5.50;;;1.27;;
1682;SDS011;13252;53.596;10.060;2022-12-29T15:27:25;10.00;;;2.07;;
1682;SDS011;13252;53.596;10.060;2022-12-29T15:29:57;10.83;;;3.13;;
1682;SDS011;13252;53.596;10.060;2022-12-29T15:32:38;5.67;;;3.03;;